Olean, New York
Current Conditions -  °F | °C
As of 2:15 AM on Saturday 20 Dec 2014 (Local Time) from KOLE Reporting Station
Overcast Overcast  
Wind Chill: 17°   Ceiling: 400
Heat Index: 23°   Visibility: 7mi
Dew Point: 23°   Wind: 5mph
Humidity: 100%   Direction: 340°NNW
Pressure: 30.12"   Gusts: NA
Location:  42.08°N, 78.43°W
Report Text: KOLE 200715Z AUTO 34004KT 7SM OVC004 M05/M05 A3012 RMK AO2
Loading
Personal Weather Stations






























Interactive Weather Map New forecast layout! Learn more

10-Day Weather Forecast

Advertisements
Track Severe Weather on mobile